Normand Subsea — 2CQP8 — position and weather

sailwx.info

Track history (hours):
 
Tides and Currents Weather Stations Pressure Air Temp Water Temp Dewpoint Dewpoint Depression Visibility Wind Speed Wind Dir Waves Ship Positions

Normand Subsea

Last reported at 2015-Sep-03 14:33 UTC. Time now 2015-Sep-04 07:49 UTC.
Position N 53°16' E 001°41'.

Length 113 m; draft 7.7 m.

Type: Other ship. MMSI: 235074949.

Date/timePositionNaut miles runAvg speedWind from/ knotsBaromVisibWave heightAir tempDewpointWater temp
2015-Sep-03 14:33N 53°16' E 001°41'5 4.9
2015-Sep-03 13:33N 53°11' E 001°43'0 0.1
2015-Sep-03 12:33N 53°11' E 001°43'0 0.0
2015-Sep-03 11:33N 53°11' E 001°43'0 0.0
2015-Sep-03 10:33N 53°11' E 001°43'0 0.0
2015-Sep-03 09:33N 53°11' E 001°43'0 0.0
2015-Sep-03 08:33N 53°11' E 001°43'0 0.0
2015-Sep-03 07:33N 53°11' E 001°43'0 0.5
2015-Sep-03 06:33N 53°11' E 001°43'0 0.0
2015-Sep-03 05:33N 53°10' E 001°43'0 0.0
2015-Sep-03 04:33N 53°10' E 001°43'0 0.0
2015-Sep-03 03:33N 53°10' E 001°43'2 2.2
2015-Sep-03 02:33N 53°08' E 001°43'7 7.1
2015-Sep-03 01:33N 53°01' E 001°44'0 0.3
2015-Sep-03 00:33N 53°01' E 001°45'0 0.0
2015-Sep-02 23:33N 53°01' E 001°45'0 0.0
2015-Sep-02 22:33N 53°01' E 001°45'1 0.6
2015-Sep-02 21:33N 53°02' E 001°45'4 3.7
2015-Sep-02 20:33N 53°02' E 001°51'1 0.8
2015-Sep-02 19:33N 53°02' E 001°52'0 0.0
2015-Sep-02 18:34N 53°02' E 001°52'0 0.0
2015-Sep-02 17:33N 53°02' E 001°52'0 0.0
2015-Sep-02 16:33N 53°02' E 001°52'0 0.0
2015-Sep-02 15:33N 53°02' E 001°52'4 4.2
2015-Sep-02 14:33N 53°03' E 001°59'0 0.4
2015-Sep-02 13:33N 53°03' E 001°58'0 0.4
2015-Sep-02 12:33N 53°03' E 001°59'0 0.0
2015-Sep-02 11:33N 53°03' E 001°59'0 0.0
2015-Sep-02 10:33N 53°03' E 001°59'0 0.0
2015-Sep-02 09:33N 53°03' E 001°59'0 0.0
2015-Sep-02 08:33N 53°03' E 001°59'0 0.0
2015-Sep-02 07:33N 53°03' E 001°59'2 2.1
2015-Sep-02 06:33N 53°04' E 002°02'0 0.0
2015-Sep-02 05:33N 53°04' E 002°02'0 0.0
2015-Sep-02 04:33N 53°04' E 002°02'3 3.3
2015-Sep-02 03:33N 53°02' E 002°06'2 2.5
2015-Sep-02 02:33N 53°03' E 002°09'2 2.3
2015-Sep-02 01:33N 53°05' E 002°06'1 0.5
2015-Sep-02 00:33N 53°05' E 002°07'0 0.1
2015-Sep-01 23:33N 53°05' E 002°07'0 0.0
2015-Sep-01 22:33N 53°05' E 002°07'0 0.0
2015-Sep-01 21:33N 53°05' E 002°07'0 0.0
2015-Sep-01 20:33N 53°05' E 002°07'0 0.2
2015-Sep-01 19:33N 53°05' E 002°07'0 0.1
2015-Sep-01 18:33N 53°05' E 002°07'0 0.1
2015-Sep-01 17:33N 53°05' E 002°07'0 0.0
2015-Sep-01 16:33N 53°05' E 002°07'0 0.0
2015-Sep-01 15:33N 53°05' E 002°07'0 0.0
2015-Sep-01 14:33N 53°05' E 002°07'0 0.3
2015-Sep-01 13:33N 53°05' E 002°08'0 0.1
2015-Sep-01 12:33N 53°05' E 002°08'0 0.2
2015-Sep-01 11:31N 53°05' E 002°07'0 0.2
2015-Sep-01 10:33N 53°05' E 002°07'0 0.0
2015-Sep-01 09:33N 53°05' E 002°07'0 0.0
2015-Sep-01 08:33N 53°05' E 002°07'0 0.0
2015-Sep-01 07:33N 53°05' E 002°07'0 0.3
2015-Sep-01 06:32N 53°06' E 002°07'1 0.5
2015-Sep-01 05:33N 53°06' E 002°06'0 0.0
2015-Sep-01 04:33N 53°06' E 002°06'0 0.0
2015-Sep-01 03:33N 53°06' E 002°06'0 0.0
2015-Sep-01 02:33N 53°06' E 002°06'0 0.0
2015-Sep-01 01:33N 53°06' E 002°06'0 0.4
2015-Sep-01 00:33N 53°06' E 002°05'0 0.3
2015-Aug-31 23:32N 53°06' E 002°05'0 0.0
2015-Aug-31 22:33N 53°06' E 002°05'0 0.0
2015-Aug-31 21:32N 53°06' E 002°05'0 0.0
2015-Aug-31 20:33N 53°06' E 002°05'0 0.0
2015-Aug-31 19:32N 53°06' E 002°05'1 0.3
2015-Aug-31 16:25N 53°06' E 002°04'0 0.0
2015-Aug-31 15:33N 53°06' E 002°04'0 0.0
2015-Aug-31 14:33N 53°06' E 002°04'0 0.0
2015-Aug-31 12:30N 53°06' E 002°04'0 0.3
2015-Aug-31 11:33N 53°06' E 002°04'0 0.0
2015-Aug-31 10:33N 53°06' E 002°04'0 0.0
2015-Aug-31 09:33N 53°06' E 002°04'0 0.0
2015-Aug-31 08:33N 53°06' E 002°04'0 0.0
2015-Aug-31 07:33N 53°06' E 002°04'0 0.0
2015-Aug-31 04:33N 53°06' E 002°04'0 0.0
2015-Aug-31 03:33N 53°06' E 002°04'0 0.0
2015-Aug-31 02:33N 53°06' E 002°04'0 0.0
2015-Aug-31 01:33N 53°06' E 002°04'0 0.1
2015-Aug-31 00:34N 53°06' E 002°04'1 0.6
2015-Aug-30 23:33N 53°07' E 002°05'1 0.6
2015-Aug-30 22:33N 53°07' E 002°06'0 0.2
2015-Aug-30 21:33N 53°07' E 002°06'0 0.1
2015-Aug-30 20:33N 53°07' E 002°06'0 0.0
2015-Aug-30 19:33N 53°07' E 002°06'0 0.1
2015-Aug-30 18:33N 53°07' E 002°06'0 0.0
2015-Aug-30 17:33N 53°07' E 002°06'0 0.3
2015-Aug-30 16:33N 53°07' E 002°06'3 3.2
2015-Aug-30 15:33N 53°05' E 002°10'22 2.5
2015-Aug-30 06:28N 53°20' E 002°38'2 1.2
2015-Aug-30 05:08N 53°18' E 002°40'2 0.4
2015-Aug-30 00:33N 53°17' E 002°41'1 0.4
2015-Aug-29 22:33N 53°17' E 002°40'1 0.5
2015-Aug-29 21:28N 53°18' E 002°39'0 0.0
2015-Aug-29 20:33N 53°18' E 002°39'0 0.0
2015-Aug-29 19:33N 53°18' E 002°39'0 0.0
2015-Aug-29 18:33N 53°18' E 002°39'0 0.3
2015-Aug-29 17:13N 53°18' E 002°39'0 0.5
2015-Aug-29 16:33N 53°18' E 002°38'10 1.1
2015-Aug-29 07:09N 53°14' E 002°23'24 4.9
2015-Aug-29 02:13N 53°28' E 001°51'0 0.0
2015-Aug-29 01:33N 53°28' E 001°51'0 0.0
2015-Aug-28 22:25N 53°28' E 001°51'0 0.4
2015-Aug-28 21:33N 53°28' E 001°50'12 0.6
2015-Aug-28 00:33N 53°18' E 001°39'1010.5
2015-Aug-27 23:33N 53°08' E 001°40'1111.2
2015-Aug-27 22:33N 52°57' E 001°32'1 1.3
2015-Aug-27 21:33N 52°56' E 001°32'1 0.7
2015-Aug-27 20:34N 52°57' E 001°32'1 0.5
2015-Aug-27 19:34N 52°57' E 001°33'0 0.0
2015-Aug-27 18:33N 52°57' E 001°33'0 0.0
2015-Aug-27 17:33N 52°57' E 001°33'0 0.0
2015-Aug-27 16:33N 52°57' E 001°33'0 0.0
2015-Aug-27 15:33N 52°57' E 001°33'0 0.3
2015-Aug-27 14:33N 52°58' E 001°33'0 0.2
2015-Aug-27 13:33N 52°58' E 001°33'0 0.0
2015-Aug-27 12:33N 52°58' E 001°33'0 0.0
2015-Aug-27 11:33N 52°58' E 001°33'0 0.0
2015-Aug-27 10:34N 52°58' E 001°33'0 0.0
2015-Aug-27 09:33N 52°58' E 001°33'0 0.5
2015-Aug-27 08:33N 52°58' E 001°33'0 0.4
2015-Aug-27 07:33N 52°59' E 001°34'0 0.0
2015-Aug-27 06:33N 52°59' E 001°34'0 0.0
2015-Aug-27 05:33N 52°59' E 001°34'0 0.0
2015-Aug-27 04:33N 52°59' E 001°34'0 0.0
2015-Aug-27 03:33N 52°59' E 001°34'0 0.2
2015-Aug-27 02:33N 52°59' E 001°34'0 0.2
2015-Aug-27 01:33N 52°59' E 001°34'0 0.0
2015-Aug-27 00:33N 52°59' E 001°34'0 0.0
2015-Aug-26 23:33N 52°59' E 001°34'0 0.0
2015-Aug-26 22:33N 52°59' E 001°34'0 0.0
2015-Aug-26 21:33N 52°59' E 001°34'0 0.5
2015-Aug-26 20:33N 52°59' E 001°34'0 0.5
2015-Aug-26 19:34N 52°60' E 001°35'0 0.0
2015-Aug-26 18:33N 52°60' E 001°35'4 3.9
2015-Aug-26 17:33N 52°56' E 001°32'4 3.8
2015-Aug-26 16:33N 52°54' E 001°38'10 9.7
2015-Aug-26 15:34N 52°50' E 001°52'1010.0
2015-Aug-26 14:33N 52°43' E 002°04'1110.6
2015-Aug-26 13:33N 52°34' E 001°54'6 6.1
2015-Aug-26 12:33N 52°35' E 001°44'0 0.0
2015-Aug-26 11:33N 52°35' E 001°44'0 0.0
2015-Aug-26 10:33N 52°35' E 001°44'0 0.0
2015-Aug-26 09:33N 52°35' E 001°44'0 0.3
2015-Aug-26 08:33N 52°35' E 001°45'3 3.2
2015-Aug-26 07:33N 52°33' E 001°49'1010.1
2015-Aug-26 06:33N 52°37' E 002°04'28 8.3
2015-Aug-26 03:15N 53°04' E 002°11'0 0.2
2015-Aug-26 02:31N 53°04' E 002°11'0 0.5
2015-Aug-26 01:30N 53°04' E 002°12'1 0.1
2015-Aug-25 16:29N 53°03' E 002°11'2 1.9
2015-Aug-25 15:33N 53°05' E 002°10'0 0.3
2015-Aug-25 14:33N 53°05' E 002°10'0 0.2
2015-Aug-25 13:33N 53°05' E 002°11'0 0.0
2015-Aug-25 12:33N 53°05' E 002°11'0 0.1
2015-Aug-25 11:32N 53°05' E 002°11'0 0.0
2015-Aug-25 10:32N 53°05' E 002°11'0 0.0
2015-Aug-25 09:32N 53°05' E 002°11'2 1.8
2015-Aug-25 08:25N 53°05' E 002°07'0 0.2
2015-Aug-25 07:33N 53°05' E 002°08'0 0.0
2015-Aug-25 06:33N 53°05' E 002°08'0 0.2
2015-Aug-25 05:32N 53°05' E 002°07'0 0.2
2015-Aug-25 04:33N 53°05' E 002°07'0 0.0
2015-Aug-25 03:33N 53°05' E 002°07'0 0.0
2015-Aug-25 02:33N 53°05' E 002°07'0 0.4
2015-Aug-25 01:33N 53°05' E 002°07'2 1.6
2015-Aug-25 00:32N 53°06' E 002°09'  
Track history (hours):
 
Tides and Currents Weather Stations Pressure Air Temp Water Temp Dewpoint Dewpoint Depression Visibility Wind Speed Wind Dir Waves Ship Positions

Normand Subsea

Last reported at 2015-Sep-03 14:33 UTC. Time now 2015-Sep-04 07:49 UTC.
Position N 53°16' E 001°41'.

Length 113 m; draft 7.7 m.

Type: Other ship. MMSI: 235074949.

Date/timePositionNaut miles runAvg speedWind from/ knotsBaromVisibWave heightAir tempDewpointWater temp
2015-Sep-03 14:33N 53°16' E 001°41'5 4.9
2015-Sep-03 13:33N 53°11' E 001°43'0 0.1
2015-Sep-03 12:33N 53°11' E 001°43'0 0.0
2015-Sep-03 11:33N 53°11' E 001°43'0 0.0
2015-Sep-03 10:33N 53°11' E 001°43'0 0.0
2015-Sep-03 09:33N 53°11' E 001°43'0 0.0
2015-Sep-03 08:33N 53°11' E 001°43'0 0.0
2015-Sep-03 07:33N 53°11' E 001°43'0 0.5
2015-Sep-03 06:33N 53°11' E 001°43'0 0.0
2015-Sep-03 05:33N 53°10' E 001°43'0 0.0
2015-Sep-03 04:33N 53°10' E 001°43'0 0.0
2015-Sep-03 03:33N 53°10' E 001°43'2 2.2
2015-Sep-03 02:33N 53°08' E 001°43'7 7.1
2015-Sep-03 01:33N 53°01' E 001°44'0 0.3
2015-Sep-03 00:33N 53°01' E 001°45'0 0.0
2015-Sep-02 23:33N 53°01' E 001°45'0 0.0
2015-Sep-02 22:33N 53°01' E 001°45'1 0.6
2015-Sep-02 21:33N 53°02' E 001°45'4 3.7
2015-Sep-02 20:33N 53°02' E 001°51'1 0.8
2015-Sep-02 19:33N 53°02' E 001°52'0 0.0
2015-Sep-02 18:34N 53°02' E 001°52'0 0.0
2015-Sep-02 17:33N 53°02' E 001°52'0 0.0
2015-Sep-02 16:33N 53°02' E 001°52'0 0.0
2015-Sep-02 15:33N 53°02' E 001°52'4 4.2
2015-Sep-02 14:33N 53°03' E 001°59'0 0.4
2015-Sep-02 13:33N 53°03' E 001°58'0 0.4
2015-Sep-02 12:33N 53°03' E 001°59'0 0.0
2015-Sep-02 11:33N 53°03' E 001°59'0 0.0
2015-Sep-02 10:33N 53°03' E 001°59'0 0.0
2015-Sep-02 09:33N 53°03' E 001°59'0 0.0
2015-Sep-02 08:33N 53°03' E 001°59'0 0.0
2015-Sep-02 07:33N 53°03' E 001°59'2 2.1
2015-Sep-02 06:33N 53°04' E 002°02'0 0.0
2015-Sep-02 05:33N 53°04' E 002°02'0 0.0
2015-Sep-02 04:33N 53°04' E 002°02'3 3.3
2015-Sep-02 03:33N 53°02' E 002°06'2 2.5
2015-Sep-02 02:33N 53°03' E 002°09'2 2.3
2015-Sep-02 01:33N 53°05' E 002°06'1 0.5
2015-Sep-02 00:33N 53°05' E 002°07'0 0.1
2015-Sep-01 23:33N 53°05' E 002°07'0 0.0
2015-Sep-01 22:33N 53°05' E 002°07'0 0.0
2015-Sep-01 21:33N 53°05' E 002°07'0 0.0
2015-Sep-01 20:33N 53°05' E 002°07'0 0.2
2015-Sep-01 19:33N 53°05' E 002°07'0 0.1
2015-Sep-01 18:33N 53°05' E 002°07'0 0.1
2015-Sep-01 17:33N 53°05' E 002°07'0 0.0
2015-Sep-01 16:33N 53°05' E 002°07'0 0.0
2015-Sep-01 15:33N 53°05' E 002°07'0 0.0
2015-Sep-01 14:33N 53°05' E 002°07'0 0.3
2015-Sep-01 13:33N 53°05' E 002°08'0 0.1
2015-Sep-01 12:33N 53°05' E 002°08'0 0.2
2015-Sep-01 11:31N 53°05' E 002°07'0 0.2
2015-Sep-01 10:33N 53°05' E 002°07'0 0.0
2015-Sep-01 09:33N 53°05' E 002°07'0 0.0
2015-Sep-01 08:33N 53°05' E 002°07'0 0.0
2015-Sep-01 07:33N 53°05' E 002°07'0 0.3
2015-Sep-01 06:32N 53°06' E 002°07'1 0.5
2015-Sep-01 05:33N 53°06' E 002°06'0 0.0
2015-Sep-01 04:33N 53°06' E 002°06'0 0.0
2015-Sep-01 03:33N 53°06' E 002°06'0 0.0
2015-Sep-01 02:33N 53°06' E 002°06'0 0.0
2015-Sep-01 01:33N 53°06' E 002°06'0 0.4
2015-Sep-01 00:33N 53°06' E 002°05'0 0.3
2015-Aug-31 23:32N 53°06' E 002°05'0 0.0
2015-Aug-31 22:33N 53°06' E 002°05'0 0.0
2015-Aug-31 21:32N 53°06' E 002°05'0 0.0
2015-Aug-31 20:33N 53°06' E 002°05'0 0.0
2015-Aug-31 19:32N 53°06' E 002°05'1 0.3
2015-Aug-31 16:25N 53°06' E 002°04'0 0.0
2015-Aug-31 15:33N 53°06' E 002°04'0 0.0
2015-Aug-31 14:33N 53°06' E 002°04'0 0.0
2015-Aug-31 12:30N 53°06' E 002°04'0 0.3
2015-Aug-31 11:33N 53°06' E 002°04'0 0.0
2015-Aug-31 10:33N 53°06' E 002°04'0 0.0
2015-Aug-31 09:33N 53°06' E 002°04'0 0.0
2015-Aug-31 08:33N 53°06' E 002°04'0 0.0
2015-Aug-31 07:33N 53°06' E 002°04'0 0.0
2015-Aug-31 04:33N 53°06' E 002°04'0 0.0
2015-Aug-31 03:33N 53°06' E 002°04'0 0.0
2015-Aug-31 02:33N 53°06' E 002°04'0 0.0
2015-Aug-31 01:33N 53°06' E 002°04'0 0.1
2015-Aug-31 00:34N 53°06' E 002°04'1 0.6
2015-Aug-30 23:33N 53°07' E 002°05'1 0.6
2015-Aug-30 22:33N 53°07' E 002°06'0 0.2
2015-Aug-30 21:33N 53°07' E 002°06'0 0.1
2015-Aug-30 20:33N 53°07' E 002°06'0 0.0
2015-Aug-30 19:33N 53°07' E 002°06'0 0.1
2015-Aug-30 18:33N 53°07' E 002°06'0 0.0
2015-Aug-30 17:33N 53°07' E 002°06'0 0.3
2015-Aug-30 16:33N 53°07' E 002°06'3 3.2
2015-Aug-30 15:33N 53°05' E 002°10'22 2.5
2015-Aug-30 06:28N 53°20' E 002°38'2 1.2
2015-Aug-30 05:08N 53°18' E 002°40'2 0.4
2015-Aug-30 00:33N 53°17' E 002°41'1 0.4
2015-Aug-29 22:33N 53°17' E 002°40'1 0.5
2015-Aug-29 21:28N 53°18' E 002°39'0 0.0
2015-Aug-29 20:33N 53°18' E 002°39'0 0.0
2015-Aug-29 19:33N 53°18' E 002°39'0 0.0
2015-Aug-29 18:33N 53°18' E 002°39'0 0.3
2015-Aug-29 17:13N 53°18' E 002°39'0 0.5
2015-Aug-29 16:33N 53°18' E 002°38'10 1.1
2015-Aug-29 07:09N 53°14' E 002°23'24 4.9
2015-Aug-29 02:13N 53°28' E 001°51'0 0.0
2015-Aug-29 01:33N 53°28' E 001°51'0 0.0
2015-Aug-28 22:25N 53°28' E 001°51'0 0.4
2015-Aug-28 21:33N 53°28' E 001°50'12 0.6
2015-Aug-28 00:33N 53°18' E 001°39'1010.5
2015-Aug-27 23:33N 53°08' E 001°40'1111.2
2015-Aug-27 22:33N 52°57' E 001°32'1 1.3
2015-Aug-27 21:33N 52°56' E 001°32'1 0.7
2015-Aug-27 20:34N 52°57' E 001°32'1 0.5
2015-Aug-27 19:34N 52°57' E 001°33'0 0.0
2015-Aug-27 18:33N 52°57' E 001°33'0 0.0
2015-Aug-27 17:33N 52°57' E 001°33'0 0.0
2015-Aug-27 16:33N 52°57' E 001°33'0 0.0
2015-Aug-27 15:33N 52°57' E 001°33'0 0.3
2015-Aug-27 14:33N 52°58' E 001°33'0 0.2
2015-Aug-27 13:33N 52°58' E 001°33'0 0.0
2015-Aug-27 12:33N 52°58' E 001°33'0 0.0
2015-Aug-27 11:33N 52°58' E 001°33'0 0.0
2015-Aug-27 10:34N 52°58' E 001°33'0 0.0
2015-Aug-27 09:33N 52°58' E 001°33'0 0.5
2015-Aug-27 08:33N 52°58' E 001°33'0 0.4
2015-Aug-27 07:33N 52°59' E 001°34'0 0.0
2015-Aug-27 06:33N 52°59' E 001°34'0 0.0
2015-Aug-27 05:33N 52°59' E 001°34'0 0.0
2015-Aug-27 04:33N 52°59' E 001°34'0 0.0
2015-Aug-27 03:33N 52°59' E 001°34'0 0.2
2015-Aug-27 02:33N 52°59' E 001°34'0 0.2
2015-Aug-27 01:33N 52°59' E 001°34'0 0.0
2015-Aug-27 00:33N 52°59' E 001°34'0 0.0
2015-Aug-26 23:33N 52°59' E 001°34'0 0.0
2015-Aug-26 22:33N 52°59' E 001°34'0 0.0
2015-Aug-26 21:33N 52°59' E 001°34'0 0.5
2015-Aug-26 20:33N 52°59' E 001°34'0 0.5
2015-Aug-26 19:34N 52°60' E 001°35'0 0.0
2015-Aug-26 18:33N 52°60' E 001°35'4 3.9
2015-Aug-26 17:33N 52°56' E 001°32'4 3.8
2015-Aug-26 16:33N 52°54' E 001°38'10 9.7
2015-Aug-26 15:34N 52°50' E 001°52'1010.0
2015-Aug-26 14:33N 52°43' E 002°04'1110.6
2015-Aug-26 13:33N 52°34' E 001°54'6 6.1
2015-Aug-26 12:33N 52°35' E 001°44'0 0.0
2015-Aug-26 11:33N 52°35' E 001°44'0 0.0
2015-Aug-26 10:33N 52°35' E 001°44'0 0.0
2015-Aug-26 09:33N 52°35' E 001°44'0 0.3
2015-Aug-26 08:33N 52°35' E 001°45'3 3.2
2015-Aug-26 07:33N 52°33' E 001°49'1010.1
2015-Aug-26 06:33N 52°37' E 002°04'28 8.3
2015-Aug-26 03:15N 53°04' E 002°11'0 0.2
2015-Aug-26 02:31N 53°04' E 002°11'0 0.5
2015-Aug-26 01:30N 53°04' E 002°12'1 0.1
2015-Aug-25 16:29N 53°03' E 002°11'2 1.9
2015-Aug-25 15:33N 53°05' E 002°10'0 0.3
2015-Aug-25 14:33N 53°05' E 002°10'0 0.2
2015-Aug-25 13:33N 53°05' E 002°11'0 0.0
2015-Aug-25 12:33N 53°05' E 002°11'0 0.1
2015-Aug-25 11:32N 53°05' E 002°11'0 0.0
2015-Aug-25 10:32N 53°05' E 002°11'0 0.0
2015-Aug-25 09:32N 53°05' E 002°11'2 1.8
2015-Aug-25 08:25N 53°05' E 002°07'0 0.2
2015-Aug-25 07:33N 53°05' E 002°08'0 0.0
2015-Aug-25 06:33N 53°05' E 002°08'0 0.2
2015-Aug-25 05:32N 53°05' E 002°07'0 0.2
2015-Aug-25 04:33N 53°05' E 002°07'0 0.0
2015-Aug-25 03:33N 53°05' E 002°07'0 0.0
2015-Aug-25 02:33N 53°05' E 002°07'0 0.4
2015-Aug-25 01:33N 53°05' E 002°07'2 1.6
2015-Aug-25 00:32N 53°06' E 002°09'  

Dump ship's entire track history